createdAt,value
2023-10-26T00:02:01.286Z,5.47
2023-10-26T00:07:03.655Z,6.40
2023-10-26T00:12:06.403Z,5.93
2023-10-26T00:17:08.992Z,6.18
2023-10-26T00:22:11.328Z,6.90
2023-10-26T00:27:13.670Z,7.78
2023-10-26T00:32:15.932Z,7.68
2023-10-26T00:37:18.185Z,7.28
2023-10-26T00:42:20.497Z,6.65
2023-10-26T00:47:22.767Z,7.30
2023-10-26T00:52:25.317Z,8.10
2023-10-26T00:57:28.733Z,6.82
2023-10-26T01:02:32.118Z,6.80
2023-10-26T01:07:34.663Z,6.28
2023-10-26T01:12:37.146Z,5.90
2023-10-26T01:17:39.438Z,6.13
2023-10-26T01:22:41.709Z,7.18
2023-10-26T01:27:44.042Z,6.85
2023-10-26T01:32:46.466Z,6.75
2023-10-26T01:37:48.726Z,6.28
2023-10-26T01:42:50.968Z,7.05
2023-10-26T01:47:55.960Z,7.32
2023-10-26T01:52:59.153Z,6.97
2023-10-26T01:58:01.443Z,6.38
2023-10-26T02:03:03.769Z,5.95
2023-10-26T02:08:06.239Z,6.47
2023-10-26T02:13:08.818Z,6.70
2023-10-26T02:18:11.070Z,6.97
2023-10-26T02:23:13.312Z,6.82
2023-10-26T02:28:21.053Z,6.20
2023-10-26T02:33:23.335Z,5.88
2023-10-26T02:38:25.629Z,5.55
2023-10-26T02:43:27.885Z,5.32
2023-10-26T02:48:30.285Z,5.45
2023-10-26T02:53:33.067Z,5.10
2023-10-26T02:58:35.694Z,5.28
2023-10-26T03:03:37.994Z,6.47
2023-10-26T03:08:40.260Z,5.53
2023-10-26T03:13:42.570Z,5.65
2023-10-26T03:18:44.894Z,5.90
2023-10-26T03:23:47.251Z,6.18
2023-10-26T03:28:53.434Z,5.22
2023-10-26T03:33:55.763Z,7.47
2023-10-26T03:38:58.095Z,6.30
2023-10-26T03:44:00.473Z,6.32
2023-10-26T03:49:02.673Z,6.18
2023-10-26T03:54:05.092Z,7.03
2023-10-26T03:59:07.502Z,5.97
2023-10-26T04:04:09.981Z,7.78
2023-10-26T04:09:12.296Z,7.20
2023-10-26T04:14:14.661Z,6.22
2023-10-26T04:19:17.021Z,7.10
2023-10-26T04:24:19.510Z,6.35
2023-10-26T04:29:21.818Z,6.60
2023-10-26T04:34:24.346Z,9.10
2023-10-26T04:39:26.570Z,6.47
2023-10-26T04:44:28.924Z,5.82
2023-10-26T04:49:31.209Z,7.95
2023-10-26T04:54:33.467Z,7.43
2023-10-26T04:59:35.843Z,7.07
2023-10-26T05:04:38.079Z,7.60
2023-10-26T05:09:40.406Z,7.28
2023-10-26T05:14:43.059Z,6.55
2023-10-26T05:19:45.491Z,8.05
2023-10-26T05:24:47.842Z,6.20
2023-10-26T05:29:50.036Z,7.28
2023-10-26T05:34:52.338Z,8.40
2023-10-26T05:39:54.597Z,8.10
2023-10-26T05:44:57.911Z,8.45
2023-10-26T05:50:00.183Z,7.60
2023-10-26T05:55:02.558Z,9.85
2023-10-26T06:00:08.356Z,10.50
2023-10-26T06:05:10.720Z,10.75
2023-10-26T06:10:13.502Z,6.90
2023-10-26T06:15:15.911Z,6.65
2023-10-26T06:20:18.470Z,5.22
2023-10-26T06:25:20.728Z,4.70
2023-10-26T06:30:25.227Z,5.90
2023-10-26T06:35:27.681Z,6.38
2023-10-26T06:40:29.931Z,5.82
2023-10-26T06:45:32.564Z,5.60
2023-10-26T06:50:35.020Z,7.22
2023-10-26T06:55:37.415Z,8.18
2023-10-26T07:00:39.679Z,9.35
2023-10-26T07:05:42.639Z,9.02
2023-10-26T07:10:45.060Z,7.38
2023-10-26T07:15:47.445Z,8.10
2023-10-26T07:20:50.639Z,9.40
2023-10-26T07:25:52.892Z,10.75
2023-10-26T07:30:55.148Z,8.60
2023-10-26T07:36:00.807Z,9.32
2023-10-26T07:41:04.916Z,7.50
2023-10-26T07:46:07.450Z,6.93
2023-10-26T07:51:09.876Z,6.70
2023-10-26T07:56:12.119Z,7.47
2023-10-26T08:01:14.368Z,7.70
2023-10-26T08:06:16.652Z,6.43
2023-10-26T08:11:18.992Z,5.47
2023-10-26T08:16:39.927Z,6.57
2023-10-26T08:21:44.109Z,5.20
2023-10-26T08:26:46.415Z,6.38
2023-10-26T08:31:48.986Z,6.43
2023-10-26T08:37:11.793Z,6.50
2023-10-26T08:42:16.747Z,8.73
2023-10-26T08:47:22.880Z,8.10
2023-10-26T08:52:26.372Z,6.20
2023-10-26T08:57:28.629Z,5.90
2023-10-26T09:02:30.967Z,6.43
2023-10-26T09:07:33.481Z,6.65
2023-10-26T09:12:35.901Z,7.60
2023-10-26T09:17:38.355Z,7.20
2023-10-26T09:22:41.764Z,7.80
2023-10-26T09:27:45.502Z,7.70
2023-10-26T09:32:47.893Z,8.25
2023-10-26T09:37:53.407Z,7.93
2023-10-26T09:42:59.031Z,8.82
2023-10-26T09:48:04.369Z,8.68
2023-10-26T09:53:07.779Z,9.20
2023-10-26T09:58:12.261Z,9.52
2023-10-26T10:03:18.450Z,9.02
2023-10-26T10:08:57.782Z,10.20
2023-10-26T10:14:00.086Z,7.07
2023-10-26T10:19:22.527Z,6.32
2023-10-26T10:24:47.974Z,5.38
2023-10-26T10:29:50.323Z,5.45
2023-10-26T10:34:53.340Z,5.25
2023-10-26T10:40:18.483Z,4.60
2023-10-26T10:45:20.985Z,4.75
2023-10-26T10:50:25.432Z,4.30
2023-10-26T10:55:29.297Z,4.55
2023-10-26T11:00:50.155Z,4.20
2023-10-26T11:05:52.515Z,4.57
2023-10-26T11:10:55.879Z,5.45
2023-10-26T11:15:58.208Z,4.95
2023-10-26T11:21:02.592Z,4.32
2023-10-26T11:26:17.120Z,3.75
2023-10-26T11:31:43.887Z,4.47
2023-10-26T11:36:46.713Z,4.53
2023-10-26T11:41:58.406Z,4.10
2023-10-26T11:47:02.059Z,4.10
2023-10-26T11:52:04.694Z,4.22
2023-10-26T11:57:07.040Z,4.28
2023-10-26T12:02:09.474Z,4.15
2023-10-26T12:07:11.723Z,4.28
2023-10-26T12:12:16.861Z,3.58
2023-10-26T12:17:19.070Z,3.15
2023-10-26T12:22:21.436Z,3.40
2023-10-26T12:27:25.123Z,3.63
2023-10-26T12:32:27.365Z,3.67
2023-10-26T12:37:29.882Z,5.10
2023-10-26T12:42:32.249Z,5.10
2023-10-26T12:47:34.562Z,4.13
2023-10-26T12:52:36.802Z,4.15
2023-10-26T12:57:38.995Z,3.83
2023-10-26T13:02:41.272Z,4.50
2023-10-26T13:07:43.571Z,3.60
2023-10-26T13:12:48.622Z,3.47
2023-10-26T13:17:51.168Z,3.22
2023-10-26T13:22:54.394Z,2.90
2023-10-26T13:27:56.945Z,3.70
2023-10-26T13:32:59.930Z,3.40
2023-10-26T13:38:02.428Z,3.58
2023-10-26T13:43:04.937Z,3.25
2023-10-26T13:48:07.207Z,3.83
2023-10-26T13:53:09.737Z,3.30
2023-10-26T13:58:11.963Z,3.10
2023-10-26T14:03:14.332Z,3.47
2023-10-26T14:08:16.648Z,4.45
2023-10-26T14:13:19.215Z,4.85
2023-10-26T14:18:21.527Z,3.22
2023-10-26T14:23:24.523Z,2.28
2023-10-26T14:28:26.865Z,2.95
2023-10-26T14:33:29.410Z,3.00
2023-10-26T14:38:31.906Z,2.92
2023-10-26T14:43:34.209Z,3.30
2023-10-26T14:48:36.961Z,4.05
2023-10-26T14:53:39.500Z,3.30
2023-10-26T14:58:41.751Z,4.10
2023-10-26T15:03:44.156Z,3.58
2023-10-26T15:08:46.497Z,4.50
2023-10-26T15:13:48.737Z,4.45
2023-10-26T15:18:51.044Z,5.32
2023-10-26T15:23:53.286Z,5.50
2023-10-26T15:28:55.927Z,6.43
2023-10-26T15:34:00.106Z,5.18
2023-10-26T15:39:02.531Z,4.55
2023-10-26T15:44:04.943Z,5.03
2023-10-26T15:49:33.793Z,4.63
2023-10-26T15:54:30.108Z,5.70
2023-10-26T15:59:33.596Z,5.45
2023-10-26T16:04:36.304Z,6.32
2023-10-26T16:09:39.253Z,6.65
2023-10-26T16:14:41.560Z,6.88
2023-10-26T16:19:43.952Z,6.50
2023-10-26T16:24:47.706Z,6.85
2023-10-26T16:29:51.772Z,9.45
2023-10-26T16:34:54.578Z,8.23
2023-10-26T16:39:57.010Z,5.45
2023-10-26T16:44:59.507Z,7.88
2023-10-26T16:50:02.091Z,6.72
2023-10-26T16:55:04.797Z,6.18
2023-10-26T17:00:08.356Z,5.38
2023-10-26T17:05:12.159Z,5.13
2023-10-26T17:10:14.498Z,5.57
2023-10-26T17:15:17.156Z,4.80
2023-10-26T17:20:20.197Z,6.25
2023-10-26T17:25:22.509Z,6.85
2023-10-26T17:30:24.828Z,5.95
2023-10-26T17:35:27.247Z,7.10
2023-10-26T17:40:29.459Z,7.38
2023-10-26T17:45:31.900Z,5.82
2023-10-26T17:50:38.991Z,6.88
2023-10-26T17:55:44.671Z,6.75
2023-10-26T18:00:46.927Z,6.35
2023-10-26T18:05:55.101Z,7.38
2023-10-26T18:10:57.658Z,7.83
2023-10-26T18:16:05.152Z,6.60
2023-10-26T18:21:09.283Z,6.25
2023-10-26T18:26:13.522Z,6.40
2023-10-26T18:31:17.747Z,6.90
2023-10-26T18:36:22.482Z,5.88
2023-10-26T18:41:26.065Z,6.93
2023-10-26T18:46:28.466Z,7.43
2023-10-26T18:51:30.891Z,7.90
2023-10-26T18:56:33.452Z,10.60
2023-10-26T19:01:36.046Z,9.70
2023-10-26T19:06:41.287Z,9.40
2023-10-26T19:11:44.090Z,7.40
2023-10-26T19:16:46.577Z,7.65
2023-10-26T19:21:48.795Z,7.85
2023-10-26T19:26:51.164Z,7.95
2023-10-26T19:31:53.413Z,7.53
2023-10-26T19:36:55.749Z,7.03
2023-10-26T19:41:58.037Z,6.28
2023-10-26T19:47:00.397Z,5.30
2023-10-26T19:52:02.685Z,5.38
2023-10-26T19:57:05.633Z,4.80
2023-10-26T20:02:09.177Z,6.00
2023-10-26T20:07:11.567Z,6.97
2023-10-26T20:12:13.843Z,8.00
2023-10-26T20:17:17.066Z,9.27
2023-10-26T20:22:19.328Z,6.90
2023-10-26T20:27:21.578Z,7.38
2023-10-26T20:32:23.944Z,7.70
2023-10-26T20:37:26.816Z,7.78
2023-10-26T20:42:29.028Z,8.00
2023-10-26T20:47:31.832Z,8.15
2023-10-26T20:52:34.043Z,9.68
2023-10-26T20:57:36.242Z,8.25
2023-10-26T21:02:40.771Z,8.85
2023-10-26T21:07:43.241Z,9.15
2023-10-26T21:12:45.598Z,7.75
2023-10-26T21:17:48.395Z,6.97
2023-10-26T21:22:50.661Z,6.28
2023-10-26T21:27:53.556Z,6.95
2023-10-26T21:32:55.834Z,6.03
2023-10-26T21:37:58.103Z,5.80
2023-10-26T21:43:00.391Z,6.97
2023-10-26T21:48:02.703Z,6.45
2023-10-26T21:53:05.203Z,7.05
2023-10-26T21:58:09.687Z,6.45
2023-10-26T22:03:11.914Z,7.10
2023-10-26T22:08:14.779Z,6.28
2023-10-26T22:13:16.989Z,7.18
2023-10-26T22:18:19.292Z,5.70
2023-10-26T22:23:21.562Z,6.95
2023-10-26T22:28:23.805Z,6.80
2023-10-26T22:33:26.006Z,6.05
2023-10-26T22:38:28.194Z,5.93
2023-10-26T22:43:30.330Z,6.38
2023-10-26T22:48:32.539Z,6.28
2023-10-26T22:53:35.179Z,6.47
2023-10-26T22:58:37.437Z,6.88
2023-10-26T23:03:39.584Z,4.70
2023-10-26T23:08:41.873Z,5.60
2023-10-26T23:13:44.086Z,6.88
2023-10-26T23:18:46.302Z,5.95
2023-10-26T23:23:48.672Z,5.53
2023-10-26T23:28:50.958Z,5.43
2023-10-26T23:33:53.605Z,4.85
2023-10-26T23:38:55.814Z,5.70
2023-10-26T23:43:57.983Z,5.38
2023-10-26T23:49:00.914Z,5.43
2023-10-26T23:54:03.333Z,4.95
2023-10-26T23:59:05.647Z,5.47
